Time;durP1;ratioP1;P1;durP2;ratioP2;P2;SDS_P1;SDS_P2;PMS_P1;PMS_P2;Temp;Humidity;BMP_temperature;BMP_pressure;BME280_temperature;BME280_humidity;BME280_pressure;Samples;Min_cycle;Max_cycle;Signal;HPM_P1;HPM_P2
2023/12/28 00:02:13;;;;;;;;;5.67;5.67;;;;;;;;5095757;27;45364;-76
2023/12/28 00:04:38;;;;;;;;;7.67;7.00;;;;;;;;5078179;28;46040;-76
2023/12/28 00:07:04;;;;;;;;;6.67;6.67;;;;;;;;5079656;28;45289;-76
2023/12/28 00:09:29;;;;;;;;;7.00;6.67;;;;;;;;5079587;27;45329;-75
2023/12/28 00:11:54;;;;;;;;;6.00;6.00;;;;;;;;5079517;28;45355;-76
2023/12/28 00:14:20;;;;;;;;;6.00;6.00;;;;;;;;5079270;28;45315;-76
2023/12/28 00:16:45;;;;;;;;;4.33;4.33;;;;;;;;5079426;28;45921;-75
2023/12/28 00:19:10;;;;;;;;;6.67;6.00;;;;;;;;5079340;28;45340;-76
2023/12/28 00:21:36;;;;;;;;;5.67;5.67;;;;;;;;5079746;27;46051;-74
2023/12/28 00:24:01;;;;;;;;;7.00;7.00;;;;;;;;5079499;28;45320;-76
2023/12/28 00:26:26;;;;;;;;;6.00;6.00;;;;;;;;5079452;28;46226;-77
2023/12/28 00:28:51;;;;;;;;;4.33;4.33;;;;;;;;5079109;28;45422;-76
2023/12/28 00:31:16;;;;;;;;;8.00;8.00;;;;;;;;5079437;28;45421;-75
2023/12/28 00:33:41;;;;;;;;;8.00;7.67;;;;;;;;5078712;28;45481;-75
2023/12/28 00:36:07;;;;;;;;;10.00;8.00;;;;;;;;5078978;28;47228;-76
2023/12/28 00:38:32;;;;;;;;;7.00;7.00;;;;;;;;5079089;28;45162;-76
2023/12/28 00:40:57;;;;;;;;;9.00;8.33;;;;;;;;5080158;28;45413;-76
2023/12/28 00:43:23;;;;;;;;;7.67;7.67;;;;;;;;5082552;28;45327;-76
2023/12/28 00:45:48;;;;;;;;;6.67;6.67;;;;;;;;5082514;28;46227;-76
2023/12/28 00:48:13;;;;;;;;;9.00;8.00;;;;;;;;5082470;28;45222;-76
2023/12/28 00:50:38;;;;;;;;;7.00;6.33;;;;;;;;5081287;28;45232;-76
2023/12/28 00:53:03;;;;;;;;;6.67;6.00;;;;;;;;5082635;28;45224;-75
2023/12/28 00:55:29;;;;;;;;;8.00;7.00;;;;;;;;5082561;28;46010;-75
2023/12/28 00:57:54;;;;;;;;;8.33;7.33;;;;;;;;5082066;28;45212;-76
2023/12/28 01:00:19;;;;;;;;;6.67;6.00;;;;;;;;5080903;28;45236;-76
2023/12/28 01:02:46;;;;;;;;;12.33;8.67;;;;;;;;5082385;28;45525;-76
2023/12/28 01:05:12;;;;;;;;;8.00;8.00;;;;;;;;5082227;28;45290;-76
2023/12/28 01:07:37;;;;;;;;;8.33;7.67;;;;;;;;5082110;27;45404;-76
2023/12/28 01:10:02;;;;;;;;;6.00;6.00;;;;;;;;5098085;27;45308;-76
2023/12/28 01:12:27;;;;;;;;;6.33;6.33;;;;;;;;5082099;28;45370;-77
2023/12/28 01:14:53;;;;;;;;;6.00;5.67;;;;;;;;5081939;28;46151;-76
2023/12/28 01:17:19;;;;;;;;;7.33;7.33;;;;;;;;5097698;27;45413;-76
2023/12/28 01:19:44;;;;;;;;;5.33;5.33;;;;;;;;5082312;27;45392;-75
2023/12/28 01:22:09;;;;;;;;;6.67;6.67;;;;;;;;5097905;27;45365;-76
2023/12/28 01:24:35;;;;;;;;;4.33;4.33;;;;;;;;5097903;27;48349;-75
2023/12/28 01:27:00;;;;;;;;;8.00;8.00;;;;;;;;5082236;28;45479;-77
2023/12/28 01:29:25;;;;;;;;;6.33;6.33;;;;;;;;5081975;28;45360;-76
2023/12/28 01:31:50;;;;;;;;;10.67;9.00;;;;;;;;5081992;28;45236;-76
2023/12/28 01:34:15;;;;;;;;;6.00;5.67;;;;;;;;5080223;28;46188;-76
2023/12/28 01:36:44;;;;;;;;;6.00;6.00;;;;;;;;5081927;28;45287;-77
2023/12/28 01:39:10;;;;;;;;;7.67;7.67;;;;;;;;5080602;28;45263;-76
2023/12/28 01:41:36;;;;;;;;;6.00;6.00;;;;;;;;5082002;28;45463;-76
2023/12/28 01:44:01;;;;;;;;;6.00;6.00;;;;;;;;5081318;27;46414;-76
2023/12/28 01:46:26;;;;;;;;;8.33;8.33;;;;;;;;5081057;28;45458;-76
2023/12/28 01:48:52;;;;;;;;;10.00;6.00;;;;;;;;5081519;28;45475;-76
2023/12/28 01:51:17;;;;;;;;;9.33;8.67;;;;;;;;5097308;27;47200;-76
2023/12/28 01:53:43;;;;;;;;;7.00;6.00;;;;;;;;5081529;28;45495;-76
2023/12/28 01:56:09;;;;;;;;;9.33;8.33;;;;;;;;5097227;27;45399;-77
2023/12/28 01:58:35;;;;;;;;;7.33;6.33;;;;;;;;5082131;27;45319;-76
2023/12/28 02:01:00;;;;;;;;;7.00;7.00;;;;;;;;5081504;28;45455;-77
2023/12/28 02:03:26;;;;;;;;;7.33;7.33;;;;;;;;5081227;28;46399;-76
2023/12/28 02:05:51;;;;;;;;;7.67;7.67;;;;;;;;5081662;28;45321;-76
2023/12/28 02:08:16;;;;;;;;;9.00;7.33;;;;;;;;5081635;28;45329;-77
2023/12/28 02:10:42;;;;;;;;;5.00;5.00;;;;;;;;5081280;28;45620;-76
2023/12/28 02:13:08;;;;;;;;;5.00;5.00;;;;;;;;5062585;28;47009;-76
2023/12/28 02:15:33;;;;;;;;;7.00;7.00;;;;;;;;5063033;28;45331;-76
2023/12/28 02:18:05;;;;;;;;;6.67;6.67;;;;;;;;5062809;28;45406;-75
2023/12/28 02:20:30;;;;;;;;;6.67;6.67;;;;;;;;5079703;28;47071;-76
2023/12/28 02:22:56;;;;;;;;;6.33;6.33;;;;;;;;5062790;28;47223;-75
2023/12/28 02:25:21;;;;;;;;;6.33;6.33;;;;;;;;5062764;28;45566;-76
2023/12/28 02:27:47;;;;;;;;;6.00;5.67;;;;;;;;5080749;28;45458;-76
2023/12/28 02:30:14;;;;;;;;;8.33;7.33;;;;;;;;5079187;28;45484;-77
2023/12/28 02:32:51;;;;;;;;;7.67;7.00;;;;;;;;5061055;28;47171;-76
2023/12/28 02:35:30;;;;;;;;;8.33;7.67;;;;;;;;5079258;28;45354;-76
2023/12/28 02:37:58;;;;;;;;;6.00;4.33;;;;;;;;5080925;28;45346;-76
2023/12/28 02:40:23;;;;;;;;;5.33;5.00;;;;;;;;5062189;28;46174;-77
2023/12/28 02:42:49;;;;;;;;;6.67;6.67;;;;;;;;5079747;28;45272;-76
2023/12/28 02:45:14;;;;;;;;;7.00;6.00;;;;;;;;5080683;28;45275;-76
2023/12/28 02:47:39;;;;;;;;;6.33;6.33;;;;;;;;5080984;28;45291;-76
2023/12/28 02:50:05;;;;;;;;;8.00;7.67;;;;;;;;5080623;28;45153;-77
2023/12/28 02:52:30;;;;;;;;;6.67;6.67;;;;;;;;5080526;28;45299;-76
2023/12/28 02:54:55;;;;;;;;;4.33;4.33;;;;;;;;5080788;28;45208;-76
2023/12/28 02:57:20;;;;;;;;;6.00;6.00;;;;;;;;5080341;28;45208;-76
2023/12/28 02:59:45;;;;;;;;;7.00;7.00;;;;;;;;5079305;28;46916;-76
2023/12/28 03:02:11;;;;;;;;;5.67;5.67;;;;;;;;5080553;28;46200;-76
2023/12/28 03:04:36;;;;;;;;;6.33;6.00;;;;;;;;5079632;28;45273;-76
2023/12/28 03:07:01;;;;;;;;;6.00;6.00;;;;;;;;5096248;27;45344;-76
2023/12/28 03:09:26;;;;;;;;;7.00;7.00;;;;;;;;5094049;27;46498;-75
2023/12/28 03:11:51;;;;;;;;;5.00;5.00;;;;;;;;5080174;28;45394;-78
2023/12/28 03:14:17;;;;;;;;;5.33;5.33;;;;;;;;5080287;28;45456;-76
2023/12/28 03:16:42;;;;;;;;;7.00;7.00;;;;;;;;5080558;28;45307;-76
2023/12/28 03:19:07;;;;;;;;;7.33;7.00;;;;;;;;5080138;28;45299;-76
2023/12/28 03:21:33;;;;;;;;;8.00;6.00;;;;;;;;5080159;28;45408;-76
2023/12/28 03:23:58;;;;;;;;;6.33;6.00;;;;;;;;5080223;28;45338;-75
2023/12/28 03:26:23;;;;;;;;;4.00;4.00;;;;;;;;5080258;28;45321;-76
2023/12/28 03:28:48;;;;;;;;;5.67;5.67;;;;;;;;5078711;28;46283;-76
2023/12/28 03:31:14;;;;;;;;;6.00;5.33;;;;;;;;5080088;28;45326;-76
2023/12/28 03:33:39;;;;;;;;;7.00;6.33;;;;;;;;5061737;28;45330;-76
2023/12/28 03:36:04;;;;;;;;;7.33;5.33;;;;;;;;5080257;28;45238;-77
2023/12/28 03:38:29;;;;;;;;;5.33;5.33;;;;;;;;5079895;28;46022;-76
2023/12/28 03:40:55;;;;;;;;;7.00;5.67;;;;;;;;5080044;28;45272;-77
2023/12/28 03:43:20;;;;;;;;;4.67;4.67;;;;;;;;5079724;28;45257;-76
2023/12/28 03:45:45;;;;;;;;;5.67;5.67;;;;;;;;5080063;28;45311;-76
2023/12/28 03:48:10;;;;;;;;;9.33;7.67;;;;;;;;5061516;28;46079;-76
2023/12/28 03:50:35;;;;;;;;;7.00;6.67;;;;;;;;5079663;28;46396;-76
2023/12/28 03:53:01;;;;;;;;;7.00;6.00;;;;;;;;5079824;28;45252;-77
2023/12/28 03:55:26;;;;;;;;;1.67;1.67;;;;;;;;5061420;28;45264;-76
2023/12/28 03:57:51;;;;;;;;;7.33;6.67;;;;;;;;5078727;28;45305;-77
2023/12/28 04:00:17;;;;;;;;;6.67;6.67;;;;;;;;5079895;28;46266;-76
2023/12/28 04:02:42;;;;;;;;;6.00;6.00;;;;;;;;5079709;28;45269;-76
2023/12/28 04:05:07;;;;;;;;;5.00;4.67;;;;;;;;5079905;28;45145;-76
2023/12/28 04:07:32;;;;;;;;;8.00;7.00;;;;;;;;5078865;28;45510;-77
2023/12/28 04:09:58;;;;;;;;;7.67;6.33;;;;;;;;5077763;28;45356;-78
2023/12/28 04:12:23;;;;;;;;;6.33;5.67;;;;;;;;5078348;27;45459;-76
2023/12/28 04:14:48;;;;;;;;;7.00;4.33;;;;;;;;5095160;27;45630;-76
2023/12/28 04:17:14;;;;;;;;;6.67;6.67;;;;;;;;5063729;28;47132;-76
2023/12/28 04:19:39;;;;;;;;;5.67;4.33;;;;;;;;5083034;28;45536;-76
2023/12/28 04:22:04;;;;;;;;;9.00;7.00;;;;;;;;5081618;28;45240;-76
2023/12/28 04:24:29;;;;;;;;;5.00;5.00;;;;;;;;5082973;27;45589;-77
2023/12/28 04:26:54;;;;;;;;;5.33;5.00;;;;;;;;5081685;28;47086;-76
2023/12/28 04:29:21;;;;;;;;;7.00;7.00;;;;;;;;5082439;28;45593;-78
2023/12/28 04:31:46;;;;;;;;;5.00;5.00;;;;;;;;5064738;28;45364;-76
2023/12/28 04:34:11;;;;;;;;;6.00;5.50;;;;;;;;5082860;28;45322;-76
2023/12/28 04:36:41;;;;;;;;;7.00;7.00;;;;;;;;5082942;28;45249;-77
2023/12/28 04:39:06;;;;;;;;;5.33;5.33;;;;;;;;5082915;28;45429;-77
2023/12/28 04:41:31;;;;;;;;;5.33;5.33;;;;;;;;5082704;28;45295;-76
2023/12/28 04:43:56;;;;;;;;;5.00;5.00;;;;;;;;5064448;28;45300;-77
2023/12/28 04:46:21;;;;;;;;;5.67;5.67;;;;;;;;5082886;28;45284;-77
2023/12/28 04:48:46;;;;;;;;;8.00;7.33;;;;;;;;5081109;28;47251;-76
2023/12/28 04:51:12;;;;;;;;;6.67;6.67;;;;;;;;5082760;28;45274;-76
2023/12/28 04:53:38;;;;;;;;;7.00;5.00;;;;;;;;5064468;28;45666;-76
2023/12/28 04:56:04;;;;;;;;;4.33;4.33;;;;;;;;5082609;28;45431;-76
2023/12/28 04:58:29;;;;;;;;;7.67;6.33;;;;;;;;5082180;28;45203;-76
2023/12/28 05:00:54;;;;;;;;;4.67;4.00;;;;;;;;5082510;28;45339;-75
2023/12/28 05:03:19;;;;;;;;;6.00;5.00;;;;;;;;5098184;27;45267;-77
2023/12/28 05:05:44;;;;;;;;;5.67;5.67;;;;;;;;5098162;27;47079;-77
2023/12/28 05:08:10;;;;;;;;;8.00;6.33;;;;;;;;5082343;28;45151;-77
2023/12/28 05:10:35;;;;;;;;;7.67;7.67;;;;;;;;5082319;28;45294;-77
2023/12/28 05:13:00;;;;;;;;;7.33;5.67;;;;;;;;5082208;28;45253;-77
2023/12/28 05:15:25;;;;;;;;;7.00;6.00;;;;;;;;5082328;28;45520;-76
2023/12/28 05:17:50;;;;;;;;;8.67;6.67;;;;;;;;5082016;28;45320;-76
2023/12/28 05:20:16;;;;;;;;;5.33;5.33;;;;;;;;5082161;28;45195;-76
2023/12/28 05:22:41;;;;;;;;;7.00;7.00;;;;;;;;5097933;27;45223;-76
2023/12/28 05:25:07;;;;;;;;;6.33;6.33;;;;;;;;5080965;28;46024;-77
2023/12/28 05:27:32;;;;;;;;;7.67;6.67;;;;;;;;5081372;28;45642;-77
2023/12/28 05:29:57;;;;;;;;;5.33;5.33;;;;;;;;5097570;27;45656;-76
2023/12/28 05:32:22;;;;;;;;;8.00;6.67;;;;;;;;5097985;27;45725;-76
2023/12/28 05:34:49;;;;;;;;;8.00;6.00;;;;;;;;5081796;28;45407;-76
2023/12/28 05:37:14;;;;;;;;;6.33;6.33;;;;;;;;5082035;27;45349;-76
2023/12/28 05:39:39;;;;;;;;;6.00;6.00;;;;;;;;5081704;28;45439;-77
2023/12/28 05:42:05;;;;;;;;;8.00;7.33;;;;;;;;5097760;27;45364;-75
2023/12/28 05:44:30;;;;;;;;;4.67;3.67;;;;;;;;5082625;28;45353;-76
2023/12/28 05:46:56;;;;;;;;;4.67;4.67;;;;;;;;5081703;28;46203;-77
2023/12/28 05:49:21;;;;;;;;;7.00;5.67;;;;;;;;5081611;27;45393;-76
2023/12/28 05:51:46;;;;;;;;;3.33;3.00;;;;;;;;5081438;28;45339;-76
2023/12/28 05:54:12;;;;;;;;;6.67;6.67;;;;;;;;5081679;28;45307;-77
2023/12/28 05:56:37;;;;;;;;;8.00;8.00;;;;;;;;5081411;28;46099;-76
2023/12/28 05:59:02;;;;;;;;;7.00;7.00;;;;;;;;5081792;28;45259;-77
2023/12/28 06:01:27;;;;;;;;;7.33;7.00;;;;;;;;5097373;27;45257;-77
2023/12/28 06:03:53;;;;;;;;;5.33;5.33;;;;;;;;5081088;27;45370;-77
2023/12/28 06:06:18;;;;;;;;;5.67;5.67;;;;;;;;5081284;28;45385;-76
2023/12/28 06:08:43;;;;;;;;;6.00;6.00;;;;;;;;5080432;28;45335;-76
2023/12/28 06:11:09;;;;;;;;;6.00;6.00;;;;;;;;5081118;28;45207;-77
2023/12/28 06:13:34;;;;;;;;;6.67;6.67;;;;;;;;5080596;28;45286;-77
2023/12/28 06:15:59;;;;;;;;;6.00;4.33;;;;;;;;5081176;28;45381;-77
2023/12/28 06:18:24;;;;;;;;;6.00;5.00;;;;;;;;5080651;28;45264;-76
2023/12/28 06:20:49;;;;;;;;;4.00;4.00;;;;;;;;5079388;28;45566;-77
2023/12/28 06:23:15;;;;;;;;;5.00;5.00;;;;;;;;5062806;28;46376;-76
2023/12/28 06:25:40;;;;;;;;;4.00;3.67;;;;;;;;5081147;28;45235;-76
2023/12/28 06:28:05;;;;;;;;;6.00;4.00;;;;;;;;5081081;28;45234;-77
2023/12/28 06:30:30;;;;;;;;;5.67;5.33;;;;;;;;5081186;28;45319;-78
2023/12/28 06:32:56;;;;;;;;;5.00;5.00;;;;;;;;5062744;28;46224;-77
2023/12/28 06:35:21;;;;;;;;;6.33;6.33;;;;;;;;5062184;28;48030;-77
2023/12/28 06:37:46;;;;;;;;;7.33;7.00;;;;;;;;5061790;28;45648;-77
2023/12/28 06:40:11;;;;;;;;;4.33;4.33;;;;;;;;5079026;28;45467;-79
2023/12/28 06:42:37;;;;;;;;;5.00;5.00;;;;;;;;5078653;28;46433;-79
2023/12/28 06:45:02;;;;;;;;;8.00;7.00;;;;;;;;5080339;28;45299;-79
2023/12/28 06:47:27;;;;;;;;;8.67;8.67;;;;;;;;5080639;28;45271;-78
2023/12/28 06:49:52;;;;;;;;;5.00;5.00;;;;;;;;5080628;28;45344;-78
2023/12/28 06:52:18;;;;;;;;;5.33;5.33;;;;;;;;5062209;28;46035;-78
2023/12/28 06:54:43;;;;;;;;;7.00;7.00;;;;;;;;5080216;28;45358;-80
2023/12/28 06:57:08;;;;;;;;;3.00;3.00;;;;;;;;5080123;28;45375;-79
2023/12/28 06:59:33;;;;;;;;;5.50;5.50;;;;;;;;5080594;28;45317;-79
2023/12/28 07:01:58;;;;;;;;;5.67;5.00;;;;;;;;5080254;28;45379;-77
2023/12/28 07:04:25;;;;;;;;;8.33;6.33;;;;;;;;5080372;28;45365;-79
2023/12/28 07:06:50;;;;;;;;;7.00;5.00;;;;;;;;5080824;28;45284;-79
2023/12/28 07:09:16;;;;;;;;;6.33;6.33;;;;;;;;5080415;28;45394;-80
2023/12/28 07:11:41;;;;;;;;;7.00;7.00;;;;;;;;5080291;28;45469;-79
2023/12/28 07:14:06;;;;;;;;;10.33;8.00;;;;;;;;5078719;28;48272;-79
2023/12/28 07:16:31;;;;;;;;;9.00;7.67;;;;;;;;5078980;28;45766;-78
2023/12/28 07:18:56;;;;;;;;;7.67;6.00;;;;;;;;5061827;28;45307;-80
2023/12/28 07:21:22;;;;;;;;;7.00;7.00;;;;;;;;5080380;28;45395;-80
2023/12/28 07:23:49;;;;;;;;;7.00;6.00;;;;;;;;5062084;28;46103;-80
2023/12/28 07:26:14;;;;;;;;;8.00;7.33;;;;;;;;5080141;28;45418;-79
2023/12/28 07:28:42;;;;;;;;;5.33;5.33;;;;;;;;5082571;28;45256;-81
2023/12/28 07:31:07;;;;;;;;;8.67;8.00;;;;;;;;5080095;28;45466;-78
2023/12/28 07:33:32;;;;;;;;;7.67;6.67;;;;;;;;5079955;28;46147;-78
2023/12/28 07:35:59;;;;;;;;;7.00;6.67;;;;;;;;5080271;28;45364;-76
2023/12/28 07:38:24;;;;;;;;;4.33;3.00;;;;;;;;5079934;28;45474;-76
2023/12/28 07:40:50;;;;;;;;;9.00;8.00;;;;;;;;5079376;27;45462;-76
2023/12/28 07:43:15;;;;;;;;;7.67;7.67;;;;;;;;5079634;28;45335;-77
2023/12/28 07:45:41;;;;;;;;;7.67;6.33;;;;;;;;5079208;28;46468;-76
2023/12/28 07:48:06;;;;;;;;;5.00;5.00;;;;;;;;5080186;28;45325;-77
2023/12/28 07:50:32;;;;;;;;;8.00;7.67;;;;;;;;5079388;28;45251;-78
2023/12/28 07:52:57;;;;;;;;;5.33;5.33;;;;;;;;5079191;28;46377;-75
2023/12/28 07:55:22;;;;;;;;;5.67;5.67;;;;;;;;5076884;28;45244;-76
2023/12/28 07:57:47;;;;;;;;;8.00;7.00;;;;;;;;5078779;28;45552;-76
2023/12/28 08:00:12;;;;;;;;;7.33;5.33;;;;;;;;5079625;28;45424;-76
2023/12/28 08:02:38;;;;;;;;;6.33;6.00;;;;;;;;5074062;28;46436;-76
2023/12/28 08:05:03;;;;;;;;;7.67;6.00;;;;;;;;5076886;28;45394;-75
2023/12/28 08:07:29;;;;;;;;;7.67;6.00;;;;;;;;5076236;28;45348;-75
2023/12/28 08:09:54;;;;;;;;;7.00;7.00;;;;;;;;5076650;28;46395;-76
2023/12/28 08:12:20;;;;;;;;;6.00;6.00;;;;;;;;5077050;28;47427;-76
2023/12/28 08:14:46;;;;;;;;;7.33;7.33;;;;;;;;5078303;28;45355;-77
2023/12/28 08:17:11;;;;;;;;;6.00;6.00;;;;;;;;5075985;28;45505;-75
2023/12/28 08:19:36;;;;;;;;;5.67;5.67;;;;;;;;5078758;28;45466;-77
2023/12/28 08:22:02;;;;;;;;;6.33;6.33;;;;;;;;5076915;28;48211;-77
2023/12/28 08:24:27;;;;;;;;;5.00;4.00;;;;;;;;5078622;28;45645;-76
2023/12/28 08:26:53;;;;;;;;;4.67;4.67;;;;;;;;5078437;28;45526;-77
2023/12/28 08:29:18;;;;;;;;;6.00;6.00;;;;;;;;5077420;28;45300;-76
2023/12/28 08:31:43;;;;;;;;;5.00;3.33;;;;;;;;5077447;28;46493;-77
2023/12/28 08:34:09;;;;;;;;;7.00;4.67;;;;;;;;5077762;28;45438;-76
2023/12/28 08:36:34;;;;;;;;;5.33;2.33;;;;;;;;5077811;28;45393;-77
2023/12/28 08:38:59;;;;;;;;;4.33;3.33;;;;;;;;5076675;28;45414;-76
2023/12/28 08:41:24;;;;;;;;;4.67;4.33;;;;;;;;5078111;28;46425;-76
2023/12/28 08:43:50;;;;;;;;;3.00;3.00;;;;;;;;5077039;28;45481;-76
2023/12/28 08:46:15;;;;;;;;;6.00;3.67;;;;;;;;5059585;28;45450;-76
2023/12/28 08:48:41;;;;;;;;;6.00;5.00;;;;;;;;5076733;28;46478;-77
2023/12/28 08:51:06;;;;;;;;;4.33;3.00;;;;;;;;5057111;28;48198;-77
2023/12/28 08:53:31;;;;;;;;;5.00;5.00;;;;;;;;5077929;28;45453;-77
2023/12/28 08:55:56;;;;;;;;;7.33;7.33;;;;;;;;5077488;28;45480;-77
2023/12/28 08:58:22;;;;;;;;;5.33;4.67;;;;;;;;5077134;28;45505;-77
2023/12/28 09:00:48;;;;;;;;;5.33;5.00;;;;;;;;5077732;28;46057;-77
2023/12/28 09:03:13;;;;;;;;;6.00;4.67;;;;;;;;5079702;28;45455;-76
2023/12/28 09:05:39;;;;;;;;;5.33;4.00;;;;;;;;5079770;28;45357;-76
2023/12/28 09:08:04;;;;;;;;;7.00;5.00;;;;;;;;5079844;28;45402;-75
2023/12/28 09:10:29;;;;;;;;;4.00;4.00;;;;;;;;5081210;28;45516;-75
2023/12/28 09:12:54;;;;;;;;;6.00;5.33;;;;;;;;5081051;28;45509;-75
2023/12/28 09:15:20;;;;;;;;;6.33;6.33;;;;;;;;5080182;28;45360;-75
2023/12/28 09:17:45;;;;;;;;;6.00;4.00;;;;;;;;5080571;28;45435;-75
2023/12/28 09:20:11;;;;;;;;;6.67;5.00;;;;;;;;5081162;28;45361;-75
2023/12/28 09:22:37;;;;;;;;;6.00;4.00;;;;;;;;5081102;28;45510;-75
2023/12/28 09:25:02;;;;;;;;;5.00;4.00;;;;;;;;5080235;28;45383;-76
2023/12/28 09:27:27;;;;;;;;;5.00;4.00;;;;;;;;5081492;28;45442;-75
2023/12/28 09:29:52;;;;;;;;;6.67;6.67;;;;;;;;5080194;28;45483;-76
2023/12/28 09:32:18;;;;;;;;;6.00;3.67;;;;;;;;5078772;28;45645;-75
2023/12/28 09:34:43;;;;;;;;;4.67;4.00;;;;;;;;5079605;28;45390;-75
2023/12/28 09:37:08;;;;;;;;;5.00;3.33;;;;;;;;5077749;28;46553;-75
2023/12/28 09:39:33;;;;;;;;;5.00;3.67;;;;;;;;5079286;28;45876;-75
2023/12/28 09:42:01;;;;;;;;;4.00;4.00;;;;;;;;5080645;28;45287;-75
2023/12/28 09:44:28;;;;;;;;;4.00;4.00;;;;;;;;5080595;28;45290;-74
2023/12/28 09:46:55;;;;;;;;;5.00;5.00;;;;;;;;5080052;28;45267;-75
2023/12/28 09:49:21;;;;;;;;;5.67;5.67;;;;;;;;5056307;28;46661;-75
2023/12/28 09:51:46;;;;;;;;;3.33;2.67;;;;;;;;5080695;28;45829;-74
2023/12/28 09:54:12;;;;;;;;;3.00;3.00;;;;;;;;5079201;28;45657;-76
2023/12/28 09:56:38;;;;;;;;;8.00;6.33;;;;;;;;5079883;28;45411;-75
2023/12/28 09:59:04;;;;;;;;;4.33;4.33;;;;;;;;5079093;28;46440;-75
2023/12/28 10:01:30;;;;;;;;;7.67;5.00;;;;;;;;5079814;28;45422;-75
2023/12/28 10:03:55;;;;;;;;;5.33;5.00;;;;;;;;5063114;28;45380;-76
2023/12/28 10:06:21;;;;;;;;;5.67;5.67;;;;;;;;5081408;28;45326;-75
2023/12/28 10:08:47;;;;;;;;;6.33;5.33;;;;;;;;5063019;28;45957;-76
2023/12/28 10:11:14;;;;;;;;;6.00;5.33;;;;;;;;5080217;28;45387;-75
2023/12/28 10:13:39;;;;;;;;;6.33;4.67;;;;;;;;5080791;28;45209;-75
2023/12/28 10:16:05;;;;;;;;;8.00;8.00;;;;;;;;5081447;28;45258;-75
2023/12/28 10:18:30;;;;;;;;;7.33;6.33;;;;;;;;5062885;28;47222;-75
2023/12/28 10:20:55;;;;;;;;;6.33;5.00;;;;;;;;5079784;28;45390;-75
2023/12/28 10:23:23;;;;;;;;;5.00;5.00;;;;;;;;5081284;28;45538;-75
2023/12/28 10:25:52;;;;;;;;;8.00;7.00;;;;;;;;5080986;28;45338;-75
2023/12/28 10:28:19;;;;;;;;;6.00;6.00;;;;;;;;5080829;28;45296;-76
2023/12/28 10:30:44;;;;;;;;;6.67;5.33;;;;;;;;5080679;28;45275;-75
2023/12/28 10:33:10;;;;;;;;;8.00;8.00;;;;;;;;5080360;28;45202;-75
2023/12/28 10:35:35;;;;;;;;;8.00;6.67;;;;;;;;5080061;28;45219;-75
2023/12/28 10:38:03;;;;;;;;;6.67;6.00;;;;;;;;5080410;28;46075;-76
2023/12/28 10:40:30;;;;;;;;;7.00;6.00;;;;;;;;5080284;28;45353;-80
2023/12/28 10:43:01;;;;;;;;;4.00;4.00;;;;;;;;5078535;28;45626;-83
2023/12/28 10:45:28;;;;;;;;;6.33;6.00;;;;;;;;5079000;28;46851;-78
2023/12/28 10:48:12;;;;;;;;;8.00;7.00;;;;;;;;5079145;28;46555;-77
2023/12/28 10:50:38;;;;;;;;;6.67;6.67;;;;;;;;5079418;28;45358;-79
2023/12/28 10:53:22;;;;;;;;;6.00;6.00;;;;;;;;5079979;28;45272;-79
2023/12/28 10:56:06;;;;;;;;;7.67;6.00;;;;;;;;5080232;28;45630;-78
2023/12/28 10:58:52;;;;;;;;;8.67;6.00;;;;;;;;5079059;28;46306;-78
2023/12/28 11:01:21;;;;;;;;;6.67;6.33;;;;;;;;5078051;28;45418;-78
2023/12/28 11:03:48;;;;;;;;;5.00;5.00;;;;;;;;5061409;28;45407;-77
2023/12/28 11:06:14;;;;;;;;;7.33;7.33;;;;;;;;5078442;28;45325;-76
2023/12/28 11:08:42;;;;;;;;;5.00;5.00;;;;;;;;5061591;28;46281;-79
2023/12/28 11:11:08;;;;;;;;;9.33;7.00;;;;;;;;5078526;28;45847;-78
2023/12/28 11:13:35;;;;;;;;;7.00;6.67;;;;;;;;5079723;28;45311;-77
2023/12/28 11:16:00;;;;;;;;;7.67;7.67;;;;;;;;5079822;28;45508;-79
2023/12/28 11:18:26;;;;;;;;;7.00;7.00;;;;;;;;5078290;28;47433;-80
2023/12/28 11:20:51;;;;;;;;;6.67;5.33;;;;;;;;5080100;28;45425;-76
2023/12/28 11:23:17;;;;;;;;;7.33;7.33;;;;;;;;5078794;28;45731;-78
2023/12/28 11:25:42;;;;;;;;;8.00;7.67;;;;;;;;5078519;28;45344;-79
2023/12/28 11:28:11;;;;;;;;;8.33;8.33;;;;;;;;5061575;28;46073;-79
2023/12/28 11:30:37;;;;;;;;;8.00;8.00;;;;;;;;5061282;28;45631;-80
2023/12/28 11:33:04;;;;;;;;;6.00;6.00;;;;;;;;5079511;28;45531;-77
2023/12/28 11:35:38;;;;;;;;;5.67;5.67;;;;;;;;5078024;28;45369;-77
2023/12/28 11:38:08;;;;;;;;;5.00;5.00;;;;;;;;5079708;28;45302;-79
2023/12/28 11:40:40;;;;;;;;;5.67;5.33;;;;;;;;5079593;28;45343;-78
2023/12/28 11:43:14;;;;;;;;;7.67;7.00;;;;;;;;5079646;28;45311;-77
2023/12/28 11:45:46;;;;;;;;;9.00;8.33;;;;;;;;5079258;28;45565;-76
2023/12/28 11:48:21;;;;;;;;;9.00;7.50;;;;;;;;5078408;28;45552;-77
2023/12/28 11:50:46;;;;;;;;;7.00;6.67;;;;;;;;5078579;28;45566;-75
2023/12/28 11:53:12;;;;;;;;;7.00;6.00;;;;;;;;5060506;28;45563;-77
2023/12/28 11:55:37;;;;;;;;;8.33;7.00;;;;;;;;5078817;28;45756;-76
2023/12/28 11:58:02;;;;;;;;;7.00;7.00;;;;;;;;5084657;27;46324;-78
2023/12/28 12:00:27;;;;;;;;;6.00;6.00;;;;;;;;5064716;27;45379;-76
2023/12/28 12:02:53;;;;;;;;;8.00;6.00;;;;;;;;5075363;28;45351;-76
2023/12/28 12:05:18;;;;;;;;;7.67;6.67;;;;;;;;5078812;27;45489;-76
2023/12/28 12:07:43;;;;;;;;;7.00;7.00;;;;;;;;5059991;28;48554;-76
2023/12/28 12:10:14;;;;;;;;;6.67;6.67;;;;;;;;5078599;28;45354;-77
2023/12/28 12:12:39;;;;;;;;;5.00;4.33;;;;;;;;5074692;28;45292;-76
2023/12/28 12:15:05;;;;;;;;;4.00;4.00;;;;;;;;5076318;28;47259;-77
2023/12/28 12:17:30;;;;;;;;;6.67;6.00;;;;;;;;5077832;28;45373;-77
2023/12/28 12:19:57;;;;;;;;;8.00;6.00;;;;;;;;5078409;28;45232;-76
2023/12/28 12:22:22;;;;;;;;;7.00;7.00;;;;;;;;5078366;28;45415;-78
2023/12/28 12:24:50;;;;;;;;;8.67;7.00;;;;;;;;5078202;28;45346;-78
2023/12/28 12:27:17;;;;;;;;;5.00;4.00;;;;;;;;5077160;27;45682;-77
2023/12/28 12:29:42;;;;;;;;;9.00;8.00;;;;;;;;5063242;28;45375;-75
2023/12/28 12:32:07;;;;;;;;;9.00;8.00;;;;;;;;5077796;28;45414;-76
2023/12/28 12:34:33;;;;;;;;;7.00;7.00;;;;;;;;5078158;28;45191;-75
2023/12/28 12:36:59;;;;;;;;;7.33;7.00;;;;;;;;5079293;28;45777;-76
2023/12/28 12:39:24;;;;;;;;;5.00;5.00;;;;;;;;5082424;28;45323;-77
2023/12/28 12:41:49;;;;;;;;;7.33;6.33;;;;;;;;5082565;28;45229;-76
2023/12/28 12:44:16;;;;;;;;;0.33;0.33;;;;;;;;5082626;28;45637;-75
2023/12/28 12:46:42;;;;;;;;;6.33;5.67;;;;;;;;5064459;27;46450;-75
2023/12/28 12:49:07;;;;;;;;;5.00;5.00;;;;;;;;5093279;27;45504;-75
2023/12/28 12:51:32;;;;;;;;;3.67;3.67;;;;;;;;5102122;27;45616;-75
2023/12/28 12:53:58;;;;;;;;;5.00;5.00;;;;;;;;5088069;27;45434;-76
2023/12/28 12:56:23;;;;;;;;;5.00;5.00;;;;;;;;5081424;28;45583;-76
2023/12/28 12:58:49;;;;;;;;;9.67;7.67;;;;;;;;5079710;28;45398;-76
2023/12/28 13:01:14;;;;;;;;;7.33;6.00;;;;;;;;5081595;28;45915;-77
2023/12/28 13:03:39;;;;;;;;;5.67;5.67;;;;;;;;5081048;28;45482;-75
2023/12/28 13:06:05;;;;;;;;;7.67;6.00;;;;;;;;5081164;28;45330;-76
2023/12/28 13:08:30;;;;;;;;;7.00;6.67;;;;;;;;5081236;28;45324;-76
2023/12/28 13:10:55;;;;;;;;;6.00;6.00;;;;;;;;5081310;28;45316;-77
2023/12/28 13:13:20;;;;;;;;;5.67;5.33;;;;;;;;5079252;28;45762;-76
2023/12/28 13:15:45;;;;;;;;;6.67;6.67;;;;;;;;5080685;28;46204;-76
2023/12/28 13:18:11;;;;;;;;;5.00;4.33;;;;;;;;5080805;28;45434;-77
2023/12/28 13:20:36;;;;;;;;;4.33;4.33;;;;;;;;5080882;28;45352;-77
2023/12/28 13:23:01;;;;;;;;;5.33;5.33;;;;;;;;5080346;27;45600;-75
2023/12/28 13:25:27;;;;;;;;;5.33;5.33;;;;;;;;5081461;28;45323;-76
2023/12/28 13:27:52;;;;;;;;;6.00;6.00;;;;;;;;5081119;28;45256;-78
2023/12/28 13:30:17;;;;;;;;;5.67;5.67;;;;;;;;5081803;28;45146;-77
2023/12/28 13:32:42;;;;;;;;;6.67;5.67;;;;;;;;5081786;28;45253;-76
2023/12/28 13:35:07;;;;;;;;;3.00;3.00;;;;;;;;5081585;28;46346;-76
2023/12/28 13:37:33;;;;;;;;;6.00;6.00;;;;;;;;5080964;28;45421;-75
2023/12/28 13:39:58;;;;;;;;;5.00;5.00;;;;;;;;5080863;28;45482;-75
2023/12/28 13:42:24;;;;;;;;;5.33;4.33;;;;;;;;5080631;28;45227;-76
2023/12/28 13:44:49;;;;;;;;;4.67;4.67;;;;;;;;5080660;28;46675;-76
2023/12/28 13:47:14;;;;;;;;;6.00;5.00;;;;;;;;5062299;28;45277;-76
2023/12/28 13:49:39;;;;;;;;;3.67;3.67;;;;;;;;5077768;27;45269;-75
2023/12/28 13:52:05;;;;;;;;;4.00;4.00;;;;;;;;5064938;28;45453;-78
2023/12/28 13:54:30;;;;;;;;;5.00;4.33;;;;;;;;5080311;28;47287;-75
2023/12/28 13:56:58;;;;;;;;;3.00;3.00;;;;;;;;5079413;28;45484;-76
2023/12/28 13:59:23;;;;;;;;;5.00;3.33;;;;;;;;5079439;27;45445;-77
2023/12/28 14:01:49;;;;;;;;;5.67;4.67;;;;;;;;5080056;28;45569;-76
2023/12/28 14:04:14;;;;;;;;;5.00;3.67;;;;;;;;5080318;28;45380;-75
2023/12/28 14:06:39;;;;;;;;;6.00;4.33;;;;;;;;5079389;28;45391;-75
2023/12/28 14:09:04;;;;;;;;;6.00;5.33;;;;;;;;5079663;28;45504;-75
2023/12/28 14:11:29;;;;;;;;;5.33;5.00;;;;;;;;5079310;28;45345;-76
2023/12/28 14:13:55;;;;;;;;;3.33;3.33;;;;;;;;5060400;28;48449;-77
2023/12/28 14:16:20;;;;;;;;;4.33;3.67;;;;;;;;5078657;28;45441;-76
2023/12/28 14:18:47;;;;;;;;;4.00;4.00;;;;;;;;5061323;28;45438;-78
2023/12/28 14:21:15;;;;;;;;;3.00;3.00;;;;;;;;5077828;28;45847;-77
2023/12/28 14:23:40;;;;;;;;;4.67;4.67;;;;;;;;5076509;28;46932;-77
2023/12/28 14:26:10;;;;;;;;;3.00;3.00;;;;;;;;5079817;28;45266;-76
2023/12/28 14:28:36;;;;;;;;;4.33;3.67;;;;;;;;5062123;28;45416;-77
2023/12/28 14:31:02;;;;;;;;;4.00;2.33;;;;;;;;5079709;28;45980;-75
2023/12/28 14:33:27;;;;;;;;;5.00;3.33;;;;;;;;5078609;28;46176;-77
2023/12/28 14:35:52;;;;;;;;;5.67;4.67;;;;;;;;5080277;28;45424;-75